Aviation Digital Data Service (ADDS)

Output produced by METARs form (1532 UTC 27 May 2017)
found at http://aviationweather.gov/adds/metars/
 
KDAN 271122Z 2712/2812 VRB03KT P6SM FEW070 
     FM271600 23007KT P6SM SCT060 
     TEMPO 2722/2724 TSRA OVC040CB 
     FM280000 26005KT P6SM BKN060 
     FM280900 VRB03KT 5SM BR SCT100